Time;durP1;ratioP1;P1;durP2;ratioP2;P2;SDS_P1;SDS_P2;PMS_P1;PMS_P2;Temp;Humidity;BMP_temperature;BMP_pressure;BME280_temperature;BME280_humidity;BME280_pressure;Samples;Min_cycle;Max_cycle;Signal;HPM_P1;HPM_P2
2023/09/10 00:00:04;;;;;;;19.98;18.05;;;;;;;;;;4800971;29;20456;-91
2023/09/10 00:02:30;;;;;;;18.48;16.58;;;;;;;;;;4826158;29;20042;-91
2023/09/10 00:04:56;;;;;;;19.88;17.98;;;17.70;99.90;;;;;;4825765;29;20038;-91
2023/09/10 00:07:22;;;;;;;19.35;17.48;;;17.50;99.90;;;;;;4796914;29;20053;-91
2023/09/10 00:09:48;;;;;;;19.48;17.42;;;17.60;99.90;;;;;;4814940;29;20042;-91
2023/09/10 00:12:13;;;;;;;17.40;15.70;;;17.40;99.90;;;;;;4808065;29;20058;-90
2023/09/10 00:14:39;;;;;;;17.83;16.15;;;17.60;99.90;;;;;;4814518;29;20050;-91
2023/09/10 00:17:05;;;;;;;17.90;16.25;;;16.90;99.90;;;;;;4797062;29;20084;-91
2023/09/10 00:19:31;;;;;;;19.15;17.35;;;17.50;99.90;;;;;;4811677;29;20054;-91
2023/09/10 00:22:00;;;;;;;20.05;18.15;;;;;;;;;;4812758;29;20050;-92
2023/09/10 00:24:26;;;;;;;16.08;14.57;;;;;;;;;;4798128;29;20054;-90
2023/09/10 00:26:52;;;;;;;14.37;12.73;;;;;;;;;;4813975;29;20038;-91
2023/09/10 00:29:18;;;;;;;14.02;12.68;;;;;;;;;;4812749;29;20492;-91
2023/09/10 00:31:44;;;;;;;9.98;8.98;;;;;;;;;;4813272;29;20106;-91
2023/09/10 00:34:18;;;;;;;10.52;8.30;;;;;;;;;;4822309;29;20042;-91
2023/09/10 00:43:14;;;;;;;13.98;12.68;;;;;;;;;;4828982;29;20081;-92
2023/09/10 00:45:59;;;;;;;14.48;13.18;;;;;;;;;;4793593;29;20057;-91
2023/09/10 00:48:48;;;;;;;13.15;11.93;;;;;;;;;;4840127;29;20050;-91
2023/09/10 00:51:14;;;;;;;8.25;7.30;;;;;;;;;;4828247;29;20042;-91
2023/09/10 00:53:41;;;;;;;5.87;5.47;;;;;;;;;;4826543;29;20119;-91
2023/09/10 00:56:08;;;;;;;5.70;5.30;;;;;;;;;;4821453;29;20100;-91
2023/09/10 00:58:34;;;;;;;5.60;5.10;;;;;;;;;;4815616;29;20129;-90
2023/09/10 01:01:00;;;;;;;6.70;6.20;;;17.00;99.90;;;;;;4811023;29;20552;-91
2023/09/10 01:03:29;;;;;;;8.15;7.45;;;17.00;99.90;;;;;;4812248;29;20042;-91
2023/09/10 01:05:54;;;;;;;8.25;7.53;;;17.00;99.90;;;;;;4827145;29;20101;-92
2023/09/10 01:08:20;;;;;;;8.98;8.27;;;16.90;99.90;;;;;;4815290;29;20120;-92
2023/09/10 01:10:49;;;;;;;9.63;8.68;;;16.90;99.90;;;;;;4798800;29;20045;-91
2023/09/10 01:13:30;;;;;;;10.85;9.85;;;16.90;99.90;;;;;;4828890;29;20054;-91
2023/09/10 01:16:06;;;;;;;11.43;10.50;;;16.90;99.90;;;;;;4819772;29;20053;-91
2023/09/10 01:18:43;;;;;;;13.70;12.40;;;17.00;99.90;;;;;;4829838;29;20047;-91
2023/09/10 01:21:17;;;;;;;13.82;12.63;;;16.90;99.90;;;;;;4824690;29;20054;-91
2023/09/10 01:24:05;;;;;;;13.73;12.55;;;16.90;99.90;;;;;;4838512;29;20057;-92
2023/09/10 01:26:31;;;;;;;16.95;15.50;;;17.00;99.90;;;;;;4842873;29;20042;-92
2023/09/10 01:28:57;;;;;;;18.30;16.67;;;17.00;99.90;;;;;;4811924;29;20106;-91
2023/09/10 01:31:23;;;;;;;20.50;18.75;;;16.90;99.90;;;;;;4813786;29;20564;-92
2023/09/10 01:33:57;;;;;;;22.95;20.90;;;17.00;99.90;;;;;;4826734;29;20067;-92
2023/09/10 01:36:34;;;;;;;22.27;20.27;;;17.00;99.90;;;;;;4829698;29;20106;-92
2023/09/10 01:39:18;;;;;;;23.63;21.50;;;17.00;99.90;;;;;;4826408;29;20046;-92
2023/09/10 01:41:49;;;;;;;24.77;22.58;;;17.10;99.90;;;;;;4827625;29;20049;-91
2023/09/10 01:44:17;;;;;;;21.55;19.55;;;17.00;99.90;;;;;;4811663;29;20038;-91
2023/09/10 01:46:44;;;;;;;23.10;20.70;;;17.00;99.90;;;;;;4824275;29;20046;-92
2023/09/10 01:49:09;;;;;;;18.65;16.85;;;17.00;99.90;;;;;;4812524;29;20406;-92
2023/09/10 01:51:35;;;;;;;18.02;16.33;;;16.90;99.90;;;;;;4829545;29;20050;-91
2023/09/10 01:54:01;;;;;;;17.45;15.85;;;16.90;99.90;;;;;;4810898;29;20049;-91
2023/09/10 01:56:27;;;;;;;16.23;14.73;;;16.90;99.90;;;;;;4811677;29;20076;-91
2023/09/10 01:58:53;;;;;;;17.27;15.77;;;16.90;99.90;;;;;;4813606;29;20053;-91
2023/09/10 02:01:18;;;;;;;16.98;15.32;;;17.00;99.90;;;;;;4809260;29;20499;-92
2023/09/10 02:03:44;;;;;;;15.75;14.40;;;16.90;99.90;;;;;;4777970;29;20046;-91
2023/09/10 02:06:10;;;;;;;14.82;13.50;;;16.90;99.90;;;;;;4825035;29;20042;-91
2023/09/10 02:08:36;;;;;;;14.18;12.98;;;16.90;99.90;;;;;;4809679;29;20042;-92
2023/09/10 02:11:05;;;;;;;14.68;13.48;;;16.90;99.90;;;;;;4807104;29;20837;-91
2023/09/10 02:13:31;;;;;;;13.10;12.00;;;16.90;99.90;;;;;;4829807;29;20689;-92
2023/09/10 02:15:57;;;;;;;13.60;12.43;;;16.80;99.90;;;;;;4824221;29;20283;-92
2023/09/10 02:18:22;;;;;;;12.98;11.88;;;16.90;99.90;;;;;;4792583;29;20056;-92
2023/09/10 02:20:49;;;;;;;13.85;12.48;;;16.90;99.90;;;;;;4824062;29;20145;-92
2023/09/10 02:23:14;;;;;;;15.05;13.65;;;16.90;99.90;;;;;;4810495;29;20107;-91
2023/09/10 02:25:40;;;;;;;18.73;17.00;;;16.90;99.90;;;;;;4825805;29;20491;-92
2023/09/10 02:28:07;;;;;;;23.40;15.70;;;16.90;99.90;;;;;;4820502;29;20125;-92
2023/09/10 02:30:33;;;;;;;20.33;16.10;;;16.90;99.90;;;;;;4819734;29;20069;-92
2023/09/10 02:32:59;;;;;;;14.38;13.20;;;16.90;99.90;;;;;;4811056;29;20076;-92
2023/09/10 02:35:24;;;;;;;12.00;11.00;;;16.90;99.90;;;;;;4840460;29;20042;-91
2023/09/10 02:37:50;;;;;;;11.40;10.50;;;16.80;99.90;;;;;;4776053;29;20107;-92
2023/09/10 02:40:16;;;;;;;11.80;10.80;;;17.00;99.90;;;;;;4823530;29;20046;-91
2023/09/10 02:42:42;;;;;;;9.23;8.43;;;16.90;99.90;;;;;;4787350;29;20194;-92
2023/09/10 02:45:09;;;;;;;9.95;9.10;;;17.00;99.90;;;;;;4824782;29;20582;-92
2023/09/10 02:47:35;;;;;;;;;;;16.90;99.90;;;;;;4811296;29;20487;-92
2023/09/10 02:50:00;;;;;;;11.75;10.75;;;16.90;99.90;;;;;;4809861;29;19924;-92
2023/09/10 02:52:30;;;;;;;9.98;9.18;;;16.80;99.90;;;;;;4809056;29;20510;-92
2023/09/10 02:54:56;;;;;;;9.48;8.68;;;16.80;99.90;;;;;;4820352;29;20042;-91
2023/09/10 02:57:22;;;;;;;9.38;8.57;;;16.70;99.90;;;;;;4807232;29;20504;-92
2023/09/10 02:59:48;;;;;;;9.20;8.40;;;16.70;99.90;;;;;;4813932;29;20049;-92
2023/09/10 03:02:13;;;;;;;9.40;8.50;;;16.70;99.90;;;;;;4796040;29;20042;-92
2023/09/10 03:04:39;;;;;;;8.82;8.13;;;16.60;99.90;;;;;;4810535;29;20050;-92
2023/09/10 03:07:06;;;;;;;8.80;8.00;;;16.50;99.90;;;;;;4810551;29;20042;-93
2023/09/10 03:09:31;;;;;;;9.57;8.73;;;16.50;99.90;;;;;;4782261;29;20121;-92
2023/09/10 03:12:27;;;;;;;10.02;9.13;;;16.50;99.90;;;;;;4810748;29;20555;-93
2023/09/10 03:14:53;;;;;;;9.65;8.85;;;16.50;99.90;;;;;;4796785;29;20491;-92
2023/09/10 03:17:21;;;;;;;10.85;9.95;;;16.50;99.90;;;;;;4803899;29;20074;-92
2023/09/10 03:19:47;;;;;;;10.40;9.60;;;16.50;99.90;;;;;;4793918;29;20518;-92
2023/09/10 03:22:13;;;;;;;10.35;9.55;;;16.50;99.90;;;;;;4776532;29;20593;-92
2023/09/10 03:24:39;;;;;;;11.85;10.75;;;16.60;99.90;;;;;;4806978;29;20130;-93
2023/09/10 03:27:05;;;;;;;29.40;13.63;;;16.60;99.90;;;;;;4807388;29;20043;-92
2023/09/10 03:29:37;;;;;;;90.88;17.80;;;16.60;99.90;;;;;;4824412;29;20054;-92
2023/09/10 03:32:06;;;;;;;86.28;21.88;;;16.60;99.90;;;;;;4807396;29;20046;-92
2023/09/10 03:34:32;;;;;;;99.13;20.50;;;16.50;99.90;;;;;;4825738;29;20042;-94
2023/09/10 03:37:03;;;;;;;71.03;18.98;;;16.50;99.90;;;;;;4810511;29;20158;-92
2023/09/10 03:39:28;;;;;;;197.05;22.77;;;16.40;99.90;;;;;;4779395;29;20553;-93
2023/09/10 03:41:55;;;;;;;18.55;16.85;;;16.30;99.90;;;;;;4799589;29;20042;-93
2023/09/10 03:44:20;;;;;;;55.97;17.95;;;16.30;99.90;;;;;;4795956;29;20038;-93
2023/09/10 03:46:47;;;;;;;76.05;18.90;;;16.30;99.90;;;;;;4824958;29;20044;-93
2023/09/10 03:49:13;;;;;;;49.70;18.88;;;16.30;99.90;;;;;;4810321;29;20103;-92
2023/09/10 03:51:41;;;;;;;70.60;20.73;;;16.20;99.90;;;;;;4781051;29;20042;-94
2023/09/10 03:54:12;;;;;;;33.00;21.40;;;16.20;99.90;;;;;;4809645;29;20042;-94
2023/09/10 03:56:39;;;;;;;89.18;23.55;;;16.20;99.90;;;;;;4798475;29;20054;-93
2023/09/10 03:59:07;;;;;;;75.78;22.90;;;16.60;99.90;;;;;;4828194;29;20042;-92
2023/09/10 04:01:34;;;;;;;21.00;19.08;;;16.20;99.90;;;;;;4812946;29;20050;-92
2023/09/10 04:04:00;;;;;;;19.95;18.13;;;16.20;99.90;;;;;;4831149;29;20043;-92
2023/09/10 04:06:26;;;;;;;19.70;17.80;;;16.20;99.90;;;;;;4829392;29;20038;-93
2023/09/10 04:08:57;;;;;;;32.83;20.30;;;16.20;99.90;;;;;;4810432;29;20454;-93
2023/09/10 04:11:28;;;;;;;48.70;22.23;;;16.20;99.90;;;;;;4828203;29;20054;-94
2023/09/10 04:13:53;;;;;;;22.08;19.98;;;16.20;99.90;;;;;;4844388;29;20050;-93
2023/09/10 04:16:19;;;;;;;21.33;19.33;;;16.20;99.90;;;;;;4813882;29;20065;-93
2023/09/10 04:18:46;;;;;;;20.15;18.25;;;16.20;99.90;;;;;;4824794;29;20086;-94
2023/09/10 04:21:11;;;;;;;12.90;11.70;;;16.20;99.90;;;;;;4841131;29;20054;-93
2023/09/10 04:23:37;;;;;;;12.00;10.93;;;16.20;99.90;;;;;;4834058;29;20706;-93
2023/09/10 04:26:03;;;;;;;14.90;13.45;;;16.10;99.90;;;;;;4815147;29;20130;-93
2023/09/10 04:28:29;;;;;;;15.25;13.82;;;16.10;99.90;;;;;;4827478;29;20265;-93
2023/09/10 04:30:55;;;;;;;21.00;18.90;;;16.10;99.90;;;;;;4826906;29;20042;-92
2023/09/10 04:33:21;;;;;;;20.35;18.45;;;16.10;99.90;;;;;;4799117;29;20073;-93
2023/09/10 04:35:53;;;;;;;20.45;18.50;;;16.10;99.90;;;;;;4827852;29;20038;-94
2023/09/10 04:38:19;;;;;;;21.55;19.33;;;16.10;99.90;;;;;;4823998;29;20111;-93
2023/09/10 04:40:45;;;;;;;18.90;17.00;;;16.10;99.90;;;;;;4824436;29;20103;-93
2023/09/10 04:43:11;;;;;;;26.10;15.35;;;16.10;99.90;;;;;;4821648;29;20380;-93
2023/09/10 04:45:37;;;;;;;30.75;15.68;;;16.00;99.90;;;;;;4839955;29;20057;-94
2023/09/10 04:48:05;;;;;;;49.97;16.70;;;16.00;99.90;;;;;;4815124;29;20407;-94
2023/09/10 04:50:31;;;;;;;22.40;16.00;;;16.00;99.90;;;;;;4827841;29;20765;-93
2023/09/10 04:53:05;;;;;;;22.27;17.75;;;16.00;99.90;;;;;;4840795;29;20092;-94
2023/09/10 04:55:31;;;;;;;23.60;16.70;;;15.90;99.90;;;;;;4811631;29;20124;-94
2023/09/10 04:57:57;;;;;;;28.90;18.88;;;15.90;99.90;;;;;;4842086;29;20107;-93
2023/09/10 05:00:23;;;;;;;14.75;13.55;;;16.00;99.90;;;;;;4827532;29;20050;-94
2023/09/10 05:02:52;;;;;;;11.40;10.40;;;16.00;99.90;;;;;;4818746;29;20046;-94
2023/09/10 05:05:18;;;;;;;13.50;12.30;;;16.00;99.90;;;;;;4836801;29;20049;-95
2023/09/10 05:07:47;;;;;;;15.85;14.35;;;16.00;99.90;;;;;;4826628;29;21705;-93
2023/09/10 05:10:13;;;;;;;18.95;17.23;;;16.00;99.90;;;;;;4818829;29;20038;-93
2023/09/10 05:12:39;;;;;;;17.63;16.15;;;16.00;99.90;;;;;;4812762;29;20042;-94
2023/09/10 05:15:05;;;;;;;11.32;10.43;;;16.00;99.90;;;;;;4808936;29;20130;-92
2023/09/10 05:17:33;;;;;;;9.63;8.93;;;16.00;99.90;;;;;;4811399;29;20528;-93
2023/09/10 05:20:00;;;;;;;10.73;9.80;;;15.90;99.90;;;;;;4812040;29;20046;-94
2023/09/10 05:22:26;;;;;;;9.68;8.90;;;15.90;99.90;;;;;;4826924;29;20045;-93
2023/09/10 05:24:52;;;;;;;7.78;7.18;;;15.80;99.90;;;;;;4790441;29;20522;-94
2023/09/10 05:27:17;;;;;;;7.50;6.93;;;15.70;99.90;;;;;;4809426;29;20057;-92
2023/09/10 05:29:46;;;;;;;7.97;7.38;;;15.90;99.90;;;;;;4826568;29;20045;-93
2023/09/10 05:32:13;;;;;;;8.20;7.60;;;15.80;99.90;;;;;;4811926;29;20056;-93
2023/09/10 05:34:38;;;;;;;8.52;7.82;;;15.80;99.90;;;;;;4797349;29;20057;-93
2023/09/10 05:37:05;;;;;;;9.48;8.68;;;15.80;99.90;;;;;;4827092;29;20052;-93
2023/09/10 05:39:30;;;;;;;10.68;9.88;;;15.80;99.90;;;;;;4840709;29;20461;-94
2023/09/10 05:41:58;;;;;;;10.35;9.55;;;15.90;99.90;;;;;;4810780;29;20069;-93
2023/09/10 05:44:24;;;;;;;10.35;9.55;;;15.90;99.90;;;;;;4807574;29;20240;-92
2023/09/10 05:46:53;;;;;;;11.10;10.20;;;15.90;99.90;;;;;;4827723;29;20498;-94
2023/09/10 05:49:19;;;;;;;12.02;11.02;;;15.90;99.90;;;;;;4834534;29;20046;-94
2023/09/10 05:51:45;;;;;;;11.18;10.27;;;15.90;99.90;;;;;;4826381;29;20049;-95
2023/09/10 05:54:11;;;;;;;11.00;10.10;;;16.00;99.90;;;;;;4842869;29;20406;-93
2023/09/10 05:56:37;;;;;;;11.02;10.23;;;16.10;99.90;;;;;;4822648;29;20259;-94
2023/09/10 05:59:03;;;;;;;10.30;9.50;;;16.10;99.90;;;;;;4829132;29;20042;-93
2023/09/10 06:01:29;;;;;;;10.68;9.88;;;16.10;99.90;;;;;;4811893;29;20073;-94
2023/09/10 06:03:55;;;;;;;11.27;10.38;;;16.20;99.90;;;;;;4838840;29;20038;-93
2023/09/10 06:06:20;;;;;;;11.27;10.48;;;16.30;99.90;;;;;;4819391;29;20049;-92
2023/09/10 06:08:46;;;;;;;10.90;10.00;;;16.40;99.90;;;;;;4840424;29;20042;-93
2023/09/10 06:11:12;;;;;;;11.02;10.05;;;16.30;99.90;;;;;;4831419;29;20054;-93
2023/09/10 06:13:38;;;;;;;10.80;10.00;;;16.60;99.90;;;;;;4813654;29;20050;-93
2023/09/10 06:16:07;;;;;;;11.48;10.57;;;16.60;99.90;;;;;;4795073;29;20092;-93
2023/09/10 06:18:36;;;;;;;14.07;12.98;;;16.90;99.90;;;;;;4810450;29;20092;-94
2023/09/10 06:21:10;;;;;;;13.90;12.80;;;17.00;99.90;;;;;;4825619;29;20046;-93
2023/09/10 06:23:39;;;;;;;13.70;12.63;;;17.10;99.90;;;;;;4809971;29;20065;-94
2023/09/10 06:26:05;;;;;;;15.00;13.80;;;17.20;99.90;;;;;;4810531;29;20125;-94
2023/09/10 06:28:33;;;;;;;15.02;13.65;;;17.40;99.90;;;;;;4833789;29;20550;-94
2023/09/10 06:30:59;;;;;;;16.88;15.45;;;17.50;99.90;;;;;;4809815;29;20038;-94
2023/09/10 06:33:26;;;;;;;18.88;17.20;;;17.50;99.90;;;;;;4838372;29;20050;-94
2023/09/10 06:35:57;;;;;;;18.80;17.10;;;17.30;99.90;;;;;;4810749;29;20049;-94
2023/09/10 06:39:20;;;;;;;25.77;19.88;;;17.80;99.90;;;;;;4823055;29;20114;-94
2023/09/10 06:49:52;;;;;;;28.15;25.38;;;18.60;99.90;;;;;;4812699;29;20124;-91
2023/09/10 06:52:45;;;;;;;25.02;22.75;;;18.50;99.90;;;;;;4816033;29;20053;-93
2023/09/10 06:55:14;;;;;;;25.85;23.33;;;18.80;99.90;;;;;;4825971;29;20095;-90
2023/09/10 06:57:41;;;;;;;24.48;22.20;;;19.00;99.90;;;;;;4828543;29;20523;-91
2023/09/10 07:00:08;;;;;;;25.20;22.83;;;19.20;99.90;;;;;;4822307;29;20270;-90
2023/09/10 07:02:34;;;;;;;24.95;22.67;;;19.50;99.90;;;;;;4818455;29;20046;-91
2023/09/10 07:05:02;;;;;;;27.20;24.50;;;19.80;99.90;;;;;;4825043;29;20047;-90
2023/09/10 07:07:28;;;;;;;25.17;22.85;;;19.90;99.90;;;;;;4820370;29;20111;-90
2023/09/10 07:10:07;;;;;;;24.85;22.48;;;20.10;99.90;;;;;;4824656;29;20059;-93
2023/09/10 07:12:33;;;;;;;25.95;23.52;;;20.20;99.90;;;;;;4811545;29;20049;-90
2023/09/10 07:14:59;;;;;;;28.52;25.83;;;20.40;99.90;;;;;;4822298;29;20042;-91
2023/09/10 07:32:24;;;;;;;26.27;23.60;;;21.70;99.90;;;;;;4783257;30;20109;-90
2023/09/10 07:35:01;;;;;;;23.63;21.42;;;22.40;99.90;;;;;;4782854;29;20043;-90
2023/09/10 07:37:27;;;;;;;22.83;20.73;;;22.50;99.90;;;;;;4786373;29;20282;-90
2023/09/10 07:39:53;;;;;;;24.98;22.58;;;23.20;99.90;;;;;;4807518;29;20038;-90
2023/09/10 07:42:19;;;;;;;21.97;19.73;;;23.50;99.90;;;;;;4808699;29;20285;-89
2023/09/10 07:44:44;;;;;;;22.80;20.55;;;23.40;99.90;;;;;;4808804;29;20046;-89
2023/09/10 07:47:10;;;;;;;22.15;20.15;;;23.30;99.90;;;;;;4812244;29;20042;-94
2023/09/10 07:50:05;;;;;;;23.03;20.77;;;23.30;99.90;;;;;;4815914;29;20037;-93
2023/09/10 07:52:49;;;;;;;20.98;19.00;;;23.30;99.90;;;;;;4827747;29;20119;-92
2023/09/10 07:55:15;;;;;;;20.60;18.37;;;23.60;99.90;;;;;;4827981;29;20045;-90
2023/09/10 07:57:44;;;;;;;19.73;17.90;;;24.00;99.90;;;;;;4828937;29;20141;-96
2023/09/10 08:00:10;;;;;;;18.23;16.67;;;24.80;99.90;;;;;;4813740;29;20049;-92
2023/09/10 08:02:36;;;;;;;19.30;17.55;;;25.60;99.90;;;;;;4828816;29;20042;-91
2023/09/10 08:05:02;;;;;;;21.13;19.07;;;26.30;99.90;;;;;;4793881;29;20038;-93
2023/09/10 08:07:28;;;;;;;19.30;17.50;;;26.40;99.90;;;;;;4781954;29;20049;-92
2023/09/10 08:09:54;;;;;;;19.00;17.40;;;26.90;99.90;;;;;;4813678;29;20042;-90
2023/09/10 08:12:20;;;;;;;18.10;16.47;;;27.20;99.90;;;;;;4798860;29;20586;-91
2023/09/10 08:14:46;;;;;;;18.13;16.53;;;27.40;99.90;;;;;;4827766;29;20057;-87
2023/09/10 08:17:11;;;;;;;21.07;15.67;;;27.50;99.90;;;;;;4822264;29;20651;-89
2023/09/10 08:19:37;;;;;;;15.53;14.20;;;27.70;99.90;;;;;;4809201;29;20049;-89
2023/09/10 08:22:03;;;;;;;15.17;13.83;;;28.10;99.90;;;;;;4822328;29;20550;-89
2023/09/10 08:24:28;;;;;;;13.90;12.43;;;28.30;99.90;;;;;;4809574;29;20117;-91
2023/09/10 08:26:54;;;;;;;14.30;12.97;;;28.60;99.90;;;;;;4840790;29;20479;-91
2023/09/10 08:29:20;;;;;;;13.83;12.63;;;28.80;99.90;;;;;;4827268;29;20046;-90
2023/09/10 08:31:45;;;;;;;12.20;11.20;;;28.80;99.90;;;;;;4817992;29;20106;-89
2023/09/10 08:34:11;;;;;;;14.27;13.03;;;28.90;99.90;;;;;;4813207;29;20728;-94
2023/09/10 08:36:37;;;;;;;13.67;12.10;;;28.90;99.90;;;;;;4789332;29;20054;-90
2023/09/10 08:39:03;;;;;;;11.37;10.27;;;28.80;99.90;;;;;;4811766;29;20077;-93
2023/09/10 08:41:54;;;;;;;11.63;10.63;;;28.80;99.90;;;;;;4813329;29;20397;-94
2023/09/10 08:44:22;;;;;;;12.18;9.90;;;28.60;99.90;;;;;;4822389;29;20120;-88
2023/09/10 08:46:51;;;;;;;11.88;10.88;;;28.50;99.90;;;;;;4809746;29;20046;-89
2023/09/10 08:49:22;;;;;;;11.65;10.50;;;28.20;99.90;;;;;;4838178;29;20058;-90
2023/09/10 08:51:49;;;;;;;11.07;10.10;;;27.80;99.90;;;;;;4810408;29;20102;-86
2023/09/10 08:54:15;;;;;;;11.57;10.57;;;27.60;99.90;;;;;;4792212;29;20115;-88
2023/09/10 08:56:42;;;;;;;10.85;9.85;;;27.40;99.90;;;;;;4793035;29;20065;-88
2023/09/10 08:59:12;;;;;;;9.00;7.75;;;27.30;99.90;;;;;;4807564;29;20068;-86
2023/09/10 09:01:38;;;;;;;12.82;11.68;;;27.20;99.90;;;;;;4821212;29;20088;-87
2023/09/10 09:04:04;;;;;;;;;;;27.20;99.90;;;;;;4824061;29;20390;-89
2023/09/10 09:06:33;;;;;;;10.70;9.70;;;27.10;99.90;;;;;;4809558;29;20011;-88
2023/09/10 09:09:05;;;;;;;10.40;9.45;;;27.00;99.90;;;;;;4840544;29;20034;-88
2023/09/10 09:11:37;;;;;;;12.48;10.25;;;26.90;99.90;;;;;;4809002;29;20054;-89
2023/09/10 09:14:07;;;;;;;11.18;10.18;;;26.80;99.90;;;;;;4839215;29;20052;-88
2023/09/10 09:16:34;;;;;;;7.78;7.07;;;26.60;99.90;;;;;;4839529;29;20054;-90
2023/09/10 09:19:10;;;;;;;9.63;8.75;;;26.60;99.90;;;;;;4829989;29;20122;-88
2023/09/10 09:21:39;;;;;;;7.20;6.60;;;26.60;99.90;;;;;;4823899;29;20050;-87
2023/09/10 09:24:07;;;;;;;10.07;6.85;;;26.60;99.90;;;;;;4821995;29;20042;-86
2023/09/10 09:26:35;;;;;;;8.55;6.90;;;26.70;99.90;;;;;;4791432;29;20058;-85
2023/09/10 09:29:02;;;;;;;8.07;7.03;;;26.70;99.90;;;;;;4821184;29;20042;-88
2023/09/10 09:31:28;;;;;;;;;;;26.90;99.90;;;;;;4836452;29;20045;-88
2023/09/10 09:33:54;;;;;;;7.60;6.90;;;26.90;99.90;;;;;;4824398;29;20381;-86
2023/09/10 09:36:26;;;;;;;8.17;7.37;;;26.80;99.90;;;;;;4805500;29;20053;-95
2023/09/10 09:38:52;;;;;;;7.80;6.63;;;26.90;99.90;;;;;;4820169;29;20535;-86
2023/09/10 09:41:18;;;;;;;10.48;7.70;;;26.90;99.90;;;;;;4823545;29;20750;-87
2023/09/10 09:43:44;;;;;;;9.63;7.27;;;26.90;99.90;;;;;;4807196;29;20054;-86
2023/09/10 09:46:10;;;;;;;9.15;6.80;;;27.10;99.90;;;;;;4822999;29;20111;-96
2023/09/10 09:48:38;;;;;;;7.40;6.22;;;27.20;99.90;;;;;;4848204;24;20057;-90
2023/09/10 09:51:04;;;;;;;7.53;6.65;;;27.20;99.90;;;;;;4860573;29;20556;-91
2023/09/10 09:53:31;;;;;;;;;;;27.40;99.90;;;;;;4853530;29;20071;-93
2023/09/10 09:56:01;;;;;;;9.87;7.53;;;27.30;99.90;;;;;;4866577;29;19923;-95
2023/09/10 09:58:30;;;;;;;8.70;7.45;;;27.30;99.90;;;;;;4864090;29;20084;-92
2023/09/10 10:00:56;;;;;;;9.15;6.28;;;27.20;99.90;;;;;;4863837;29;20040;-90
2023/09/10 10:03:22;;;;;;;7.32;5.60;;;27.30;99.90;;;;;;4862866;29;20111;-90
2023/09/10 10:05:52;;;;;;;9.30;7.00;;;27.50;99.90;;;;;;4862494;29;20073;-92
2023/09/10 10:08:18;;;;;;;8.15;7.30;;;27.60;99.90;;;;;;4858584;29;20046;-92
2023/09/10 10:10:48;;;;;;;7.32;6.10;;;27.50;99.90;;;;;;4861707;29;20045;-87
2023/09/10 10:13:19;;;;;;;7.13;5.88;;;27.70;99.90;;;;;;4844898;29;20326;-91
2023/09/10 10:15:47;;;;;;;6.97;5.05;;;27.70;99.90;;;;;;4872029;29;21027;-91
2023/09/10 10:18:15;;;;;;;6.82;5.72;;;27.90;99.90;;;;;;4852604;29;20052;-89
2023/09/10 10:20:46;;;;;;;6.85;6.15;;;28.10;99.90;;;;;;4858420;29;20398;-90
2023/09/10 10:23:16;;;;;;;6.97;6.20;;;28.20;99.90;;;;;;4863589;29;20144;-90
2023/09/10 10:25:43;;;;;;;6.60;5.95;;;28.30;99.90;;;;;;4853652;29;20041;-90
2023/09/10 10:28:09;;;;;;;6.40;5.80;;;28.30;99.90;;;;;;4852542;29;20048;-91
2023/09/10 10:30:58;;;;;;;5.63;5.13;;;28.40;99.90;;;;;;4826655;29;20186;-90
2023/09/10 10:33:26;;;;;;;9.07;6.50;;;28.40;99.90;;;;;;4858790;29;20044;-90
2023/09/10 10:35:55;;;;;;;6.88;6.20;;;28.50;99.90;;;;;;4844938;29;20084;-91
2023/09/10 10:38:22;;;;;;;6.07;5.45;;;28.60;99.90;;;;;;4872500;29;20041;-92
2023/09/10 10:40:51;;;;;;;6.47;5.05;;;28.50;99.90;;;;;;4830811;29;20127;-91
2023/09/10 10:43:29;;;;;;;7.82;6.47;;;28.60;99.90;;;;;;4850875;29;20139;-91
2023/09/10 10:45:57;;;;;;;6.63;5.63;;;28.60;99.90;;;;;;4867702;29;20052;-90
2023/09/10 10:48:30;;;;;;;7.65;6.07;;;28.60;99.90;;;;;;4840281;29;20056;-93
2023/09/10 10:50:57;;;;;;;7.35;6.22;;;28.80;99.90;;;;;;4864651;29;20123;-93
2023/09/10 10:53:26;;;;;;;6.50;5.15;;;28.60;99.90;;;;;;4845889;29;20124;-93
2023/09/10 10:55:59;;;;;;;6.90;6.20;;;28.70;99.90;;;;;;4859055;29;20047;-93
2023/09/10 10:58:25;;;;;;;6.85;5.72;;;28.50;99.90;;;;;;4881875;29;20040;-94
2023/09/10 11:00:53;;;;;;;6.07;5.40;;;28.70;99.90;;;;;;4863803;29;20052;-92
2023/09/10 11:03:21;;;;;;;6.30;5.70;;;28.80;99.90;;;;;;4864223;29;20228;-93
2023/09/10 11:05:57;;;;;;;6.50;5.90;;;28.60;99.90;;;;;;4837178;29;20048;-91
2023/09/10 11:08:34;;;;;;;5.72;5.22;;;28.80;99.90;;;;;;4858628;29;20040;-91
2023/09/10 11:11:01;;;;;;;7.18;5.75;;;28.40;99.90;;;;;;4863893;29;20032;-95
2023/09/10 11:13:27;;;;;;;6.13;4.97;;;28.50;99.90;;;;;;4847510;29;20049;-92
2023/09/10 11:16:05;;;;;;;6.43;4.50;;;28.90;99.90;;;;;;4845131;29;20047;-89
2023/09/10 11:18:37;;;;;;;7.05;4.28;;;28.60;99.90;;;;;;4859694;29;20087;-93
2023/09/10 11:21:07;;;;;;;9.55;4.00;;;28.90;99.90;;;;;;4879400;29;20051;-90
2023/09/10 11:24:01;;;;;;;5.30;4.30;;;28.70;99.90;;;;;;4860884;29;20056;-94
2023/09/10 11:26:27;;;;;;;8.70;4.82;;;28.90;99.90;;;;;;4860274;29;20037;-92
2023/09/10 11:28:59;;;;;;;6.43;5.17;;;29.00;99.90;;;;;;4866257;29;20376;-95
2023/09/10 11:34:17;;;;;;;5.10;4.07;;;28.90;99.90;;;;;;4893992;29;20049;-93
2023/09/10 11:36:59;;;;;;;4.78;3.53;;;28.90;99.90;;;;;;4859097;29;20040;-87
2023/09/10 11:39:25;;;;;;;7.57;3.97;;;28.90;99.90;;;;;;4882484;29;20053;-92
2023/09/10 11:41:53;;;;;;;5.90;4.90;;;28.90;99.90;;;;;;4864995;29;20504;-92
2023/09/10 11:44:19;;;;;;;5.00;4.53;;;28.70;99.90;;;;;;4869333;29;20045;-93
2023/09/10 11:46:45;;;;;;;6.35;4.18;;;28.80;99.90;;;;;;4840511;29;20120;-94
2023/09/10 11:49:12;;;;;;;5.10;4.50;;;28.70;99.90;;;;;;4870168;29;20140;-92
2023/09/10 11:51:49;;;;;;;7.35;4.93;;;28.80;99.90;;;;;;4878813;29;20044;-93
2023/09/10 11:54:17;;;;;;;6.68;5.47;;;28.80;99.90;;;;;;4847676;29;20508;-93
2023/09/10 11:56:45;;;;;;;7.00;5.65;;;28.80;99.90;;;;;;4883751;29;20040;-93
2023/09/10 11:59:17;;;;;;;7.15;4.18;;;28.80;99.90;;;;;;4860611;29;20056;-90
2023/09/10 12:01:43;;;;;;;7.30;4.70;;;28.80;99.90;;;;;;4864554;29;20107;-93
2023/09/10 12:04:09;;;;;;;11.52;4.78;;;28.90;99.90;;;;;;4878538;29;20047;-94
2023/09/10 12:06:36;;;;;;;8.25;4.28;;;28.90;99.90;;;;;;4868189;29;20404;-92
2023/09/10 12:09:02;;;;;;;7.10;5.10;;;28.90;99.90;;;;;;4834965;29;20045;-93
2023/09/10 12:11:29;;;;;;;8.40;4.55;;;28.80;99.90;;;;;;4836226;29;20100;-89
2023/09/10 12:13:55;;;;;;;5.18;4.60;;;28.80;99.90;;;;;;4883896;29;20559;-90
2023/09/10 12:16:21;;;;;;;6.35;5.43;;;28.80;99.90;;;;;;4837359;29;20131;-93
2023/09/10 12:18:48;;;;;;;6.38;4.55;;;28.80;99.90;;;;;;4851400;29;20047;-95
2023/09/10 12:21:15;;;;;;;4.88;4.38;;;28.70;99.90;;;;;;4842656;29;20055;-95
2023/09/10 12:23:41;;;;;;;5.05;4.45;;;28.70;99.90;;;;;;4850396;29;20101;-92
2023/09/10 12:26:07;;;;;;;;;;;28.70;99.90;;;;;;4868476;29;20047;-95
2023/09/10 12:28:33;;;;;;;6.57;5.10;;;28.50;99.90;;;;;;4875148;29;19920;-92
2023/09/10 12:31:00;;;;;;;7.20;4.47;;;28.50;99.90;;;;;;4850633;29;20044;-93
2023/09/10 12:33:27;;;;;;;7.30;4.63;;;28.50;99.90;;;;;;4854398;29;20051;-92
2023/09/10 12:35:56;;;;;;;6.20;4.60;;;28.40;99.90;;;;;;4878846;29;20127;-92
2023/09/10 12:38:30;;;;;;;7.35;4.60;;;28.20;99.90;;;;;;4854951;29;20041;-94
2023/09/10 12:40:56;;;;;;;8.10;4.18;;;28.20;99.90;;;;;;4834480;29;20045;-93
2023/09/10 12:43:27;;;;;;;6.53;3.92;;;28.20;99.90;;;;;;4845564;29;20411;-94
2023/09/10 12:45:53;;;;;;;5.97;4.00;;;28.20;99.90;;;;;;4859435;29;20041;-94
2023/09/10 12:48:20;;;;;;;6.47;3.78;;;28.10;99.90;;;;;;4850044;29;20078;-91
2023/09/10 12:50:47;;;;;;;8.27;4.18;;;28.10;99.90;;;;;;4852969;29;20060;-94
2023/09/10 12:53:13;;;;;;;8.77;4.43;;;28.10;99.90;;;;;;4850341;29;20147;-93
2023/09/10 12:55:40;;;;;;;;;;;28.10;99.90;;;;;;4852589;29;20049;-92
2023/09/10 12:58:14;;;;;;;7.85;3.78;;;28.10;99.90;;;;;;4872592;29;19920;-92
2023/09/10 13:00:40;;;;;;;9.27;3.70;;;28.10;99.90;;;;;;4855904;29;20128;-93
2023/09/10 13:03:07;;;;;;;6.78;4.10;;;28.10;99.90;;;;;;4841871;29;20139;-93
2023/09/10 13:05:35;;;;;;;7.28;3.78;;;28.10;99.90;;;;;;4873574;29;20048;-94
2023/09/10 13:08:01;;;;;;;7.00;4.22;;;28.20;99.90;;;;;;4863659;29;20373;-94
2023/09/10 13:10:27;;;;;;;10.32;4.30;;;28.20;99.90;;;;;;4847531;29;20101;-94
2023/09/10 13:12:53;;;;;;;8.57;3.50;;;28.20;99.90;;;;;;4848603;29;20512;-90
2023/09/10 13:15:19;;;;;;;9.63;4.22;;;28.10;99.90;;;;;;4858321;29;20049;-92
2023/09/10 13:17:44;;;;;;;7.25;4.07;;;28.10;99.90;;;;;;4844559;29;20053;-95
2023/09/10 13:20:11;;;;;;;7.45;4.10;;;28.00;99.90;;;;;;4842055;29;20048;-93